Fukasawa, Japan

1:25 AM JST on December 05, 2016 (GMT +0900)
Kastner Army Air Field | | Change Station

Elev 358 ft 35.51 °N, 139.39 °E | Updated 42 minutes ago

Light Rain
Light Rain Mist
50 °F
Feels Like 50 °F
N
4
Wind Variable Wind from NE

Today
High -- | Low -- °F
--% Chance of Precip.
Yesterday
High -- | Low -- °F
Precip. -- in
Pressure 29.89 in
Visibility 1.9 miles
Clouds Mostly Cloudy 400 ft
Overcast 2300 ft
Dew Point 50 °F
Humidity 100%
Rainfall 0.00 in
Snow Depth Not available.
6:37 AM 4:31 PM
Waxing Crescent, 23% visible
SPECI RJTR 041543Z AUTO 04003KT 1 7/8SM -RA BR BKN004 OVC023 10/10 A2989 RMK AO2 VIS 1 7/8V2 1/2 CIG 004V024 BKN V SCT $
Pressure 29.89 in
Visibility 1.9 miles
Clouds Mostly Cloudy 400 ft
Overcast 2300 ft
Dew Point 50 °F
Humidity 100%
Rainfall 0.00 in
Snow Depth Not available.
6:37 AM 4:31 PM
Waxing Crescent, 23% visible
SPECI RJTR 041543Z AUTO 04003KT 1 7/8SM -RA BR BKN004 OVC023 10/10 A2989 RMK AO2 VIS 1 7/8V2 1/2 CIG 004V024 BKN V SCT $

10-Day Weather Forecast

No radar image for this location.
×

Almanac

Astronomy

Dec. 05, 2016 Rise Set
Actual Time
Civil Twilight
Nautical Twilight
Astronomical Twilight
Moon
Length of Visible Light
Length of Day
Tomorrow will be .
, % of the Moon is Illuminated

Today's Extremes

Country Highs Country Lows

Community

WunderPhotos

Upload Photos

1,955,617 photos uploaded!

WunderBlog® & News

Nearby

Air Quality

  Air Quality AQ Index Pollutant
Not available.

Snow Depth

Station Depth Elevation

Earthquake Activity

City Distance Mag. Time & Date
Minimum magnitude displayed is 2.5.

Coastal Water Temperatures

Place Temperature

Stations

Nearby Weather Stations

Station Location Temp. Windchill Dew Point Humidity Wind Precip. Elev Updated Type